sensor_id;sensor_type;location;lat;lon;timestamp;P1;durP1;ratioP1;P2;durP2;ratioP2
17790;SDS011;9019;48.132;-1.210;2023-08-20T00:01:21;7.37;;;2.00;;
17790;SDS011;9019;48.132;-1.210;2023-08-20T00:03:50;6.45;;;1.63;;
17790;SDS011;9019;48.132;-1.210;2023-08-20T00:06:18;5.35;;;1.92;;
17790;SDS011;9019;48.132;-1.210;2023-08-20T00:08:45;7.53;;;1.90;;
17790;SDS011;9019;48.132;-1.210;2023-08-20T00:11:12;7.73;;;1.77;;
17790;SDS011;9019;48.132;-1.210;2023-08-20T00:13:41;5.80;;;1.77;;
17790;SDS011;9019;48.132;-1.210;2023-08-20T00:16:08;8.80;;;1.90;;
17790;SDS011;9019;48.132;-1.210;2023-08-20T00:18:36;8.77;;;2.00;;
17790;SDS011;9019;48.132;-1.210;2023-08-20T00:21:03;5.25;;;1.33;;
17790;SDS011;9019;48.132;-1.210;2023-08-20T00:23:31;6.37;;;1.70;;
17790;SDS011;9019;48.132;-1.210;2023-08-20T00:25:59;5.28;;;1.50;;
17790;SDS011;9019;48.132;-1.210;2023-08-20T00:28:27;4.23;;;1.53;;
17790;SDS011;9019;48.132;-1.210;2023-08-20T00:30:55;6.33;;;1.50;;
17790;SDS011;9019;48.132;-1.210;2023-08-20T00:33:23;5.90;;;1.70;;
17790;SDS011;9019;48.132;-1.210;2023-08-20T00:35:50;5.77;;;1.70;;
17790;SDS011;9019;48.132;-1.210;2023-08-20T00:38:17;6.10;;;2.30;;
17790;SDS011;9019;48.132;-1.210;2023-08-20T00:40:44;6.37;;;1.87;;
17790;SDS011;9019;48.132;-1.210;2023-08-20T00:43:11;6.47;;;1.80;;
17790;SDS011;9019;48.132;-1.210;2023-08-20T00:45:40;9.60;;;2.07;;
17790;SDS011;9019;48.132;-1.210;2023-08-20T00:48:09;6.27;;;1.80;;
17790;SDS011;9019;48.132;-1.210;2023-08-20T00:50:36;5.70;;;1.87;;
17790;SDS011;9019;48.132;-1.210;2023-08-20T00:53:04;4.47;;;1.77;;
17790;SDS011;9019;48.132;-1.210;2023-08-20T00:55:32;7.13;;;1.97;;
17790;SDS011;9019;48.132;-1.210;2023-08-20T00:57:59;7.00;;;1.87;;
17790;SDS011;9019;48.132;-1.210;2023-08-20T01:00:26;6.20;;;1.73;;
17790;SDS011;9019;48.132;-1.210;2023-08-20T01:02:54;4.80;;;1.70;;
17790;SDS011;9019;48.132;-1.210;2023-08-20T01:05:22;4.90;;;2.00;;
17790;SDS011;9019;48.132;-1.210;2023-08-20T01:08:03;11.27;;;1.93;;
17790;SDS011;9019;48.132;-1.210;2023-08-20T01:10:34;8.27;;;1.77;;
17790;SDS011;9019;48.132;-1.210;2023-08-20T01:13:03;6.43;;;1.83;;
17790;SDS011;9019;48.132;-1.210;2023-08-20T01:15:30;7.87;;;1.77;;
17790;SDS011;9019;48.132;-1.210;2023-08-20T01:17:57;6.90;;;1.83;;
17790;SDS011;9019;48.132;-1.210;2023-08-20T01:20:27;6.47;;;1.90;;
17790;SDS011;9019;48.132;-1.210;2023-08-20T01:25:46;5.50;;;2.00;;
17790;SDS011;9019;48.132;-1.210;2023-08-20T01:28:20;7.80;;;1.97;;
17790;SDS011;9019;48.132;-1.210;2023-08-20T01:30:48;5.73;;;1.80;;
17790;SDS011;9019;48.132;-1.210;2023-08-20T01:33:16;8.43;;;1.90;;
17790;SDS011;9019;48.132;-1.210;2023-08-20T01:35:44;5.80;;;1.60;;
17790;SDS011;9019;48.132;-1.210;2023-08-20T01:38:11;4.80;;;1.70;;
17790;SDS011;9019;48.132;-1.210;2023-08-20T01:40:38;5.93;;;1.83;;
17790;SDS011;9019;48.132;-1.210;2023-08-20T01:43:05;5.63;;;1.63;;
17790;SDS011;9019;48.132;-1.210;2023-08-20T01:45:34;5.77;;;1.60;;
17790;SDS011;9019;48.132;-1.210;2023-08-20T01:48:01;4.33;;;1.50;;
17790;SDS011;9019;48.132;-1.210;2023-08-20T01:50:29;6.50;;;1.80;;
17790;SDS011;9019;48.132;-1.210;2023-08-20T01:52:56;4.37;;;1.70;;
17790;SDS011;9019;48.132;-1.210;2023-08-20T01:55:23;5.50;;;1.80;;
17790;SDS011;9019;48.132;-1.210;2023-08-20T01:57:50;5.23;;;1.70;;
17790;SDS011;9019;48.132;-1.210;2023-08-20T02:00:18;5.57;;;1.40;;
17790;SDS011;9019;48.132;-1.210;2023-08-20T02:02:46;4.87;;;1.60;;
17790;SDS011;9019;48.132;-1.210;2023-08-20T02:05:13;4.17;;;1.60;;
17790;SDS011;9019;48.132;-1.210;2023-08-20T02:07:40;4.57;;;1.50;;
17790;SDS011;9019;48.132;-1.210;2023-08-20T02:10:08;4.07;;;1.40;;
17790;SDS011;9019;48.132;-1.210;2023-08-20T02:12:35;3.53;;;1.40;;
17790;SDS011;9019;48.132;-1.210;2023-08-20T02:15:02;4.80;;;1.50;;
17790;SDS011;9019;48.132;-1.210;2023-08-20T02:17:30;4.03;;;1.63;;
17790;SDS011;9019;48.132;-1.210;2023-08-20T02:19:58;5.47;;;1.47;;
17790;SDS011;9019;48.132;-1.210;2023-08-20T02:22:25;5.43;;;1.67;;
17790;SDS011;9019;48.132;-1.210;2023-08-20T02:24:54;6.07;;;1.70;;
17790;SDS011;9019;48.132;-1.210;2023-08-20T02:27:21;6.03;;;1.47;;
17790;SDS011;9019;48.132;-1.210;2023-08-20T02:29:49;7.43;;;2.30;;
17790;SDS011;9019;48.132;-1.210;2023-08-20T02:32:16;6.60;;;2.20;;
17790;SDS011;9019;48.132;-1.210;2023-08-20T02:34:44;6.57;;;1.80;;
17790;SDS011;9019;48.132;-1.210;2023-08-20T02:37:12;5.13;;;1.60;;
17790;SDS011;9019;48.132;-1.210;2023-08-20T02:39:39;4.63;;;1.60;;
17790;SDS011;9019;48.132;-1.210;2023-08-20T02:42:07;5.07;;;1.90;;
17790;SDS011;9019;48.132;-1.210;2023-08-20T02:44:34;5.53;;;1.70;;
17790;SDS011;9019;48.132;-1.210;2023-08-20T02:47:01;6.23;;;1.90;;
17790;SDS011;9019;48.132;-1.210;2023-08-20T02:49:28;5.80;;;2.00;;
17790;SDS011;9019;48.132;-1.210;2023-08-20T02:51:55;6.73;;;1.90;;
17790;SDS011;9019;48.132;-1.210;2023-08-20T02:54:24;8.10;;;2.20;;
17790;SDS011;9019;48.132;-1.210;2023-08-20T02:56:52;6.43;;;2.03;;
17790;SDS011;9019;48.132;-1.210;2023-08-20T02:59:19;4.23;;;1.77;;
17790;SDS011;9019;48.132;-1.210;2023-08-20T03:01:46;4.10;;;1.70;;
17790;SDS011;9019;48.132;-1.210;2023-08-20T03:04:13;7.50;;;1.67;;
17790;SDS011;9019;48.132;-1.210;2023-08-20T03:06:41;7.43;;;1.83;;
17790;SDS011;9019;48.132;-1.210;2023-08-20T03:09:09;4.20;;;1.60;;
17790;SDS011;9019;48.132;-1.210;2023-08-20T03:11:37;5.73;;;1.80;;
17790;SDS011;9019;48.132;-1.210;2023-08-20T03:14:05;4.40;;;2.00;;
17790;SDS011;9019;48.132;-1.210;2023-08-20T03:16:32;4.03;;;1.60;;
17790;SDS011;9019;48.132;-1.210;2023-08-20T03:18:59;5.10;;;1.43;;
17790;SDS011;9019;48.132;-1.210;2023-08-20T03:21:27;4.50;;;1.73;;
17790;SDS011;9019;48.132;-1.210;2023-08-20T03:23:54;5.40;;;1.87;;
17790;SDS011;9019;48.132;-1.210;2023-08-20T03:26:22;6.63;;;1.63;;
17790;SDS011;9019;48.132;-1.210;2023-08-20T03:28:50;4.47;;;1.43;;
17790;SDS011;9019;48.132;-1.210;2023-08-20T03:31:17;3.80;;;1.30;;
17790;SDS011;9019;48.132;-1.210;2023-08-20T03:33:45;9.00;;;2.00;;
17790;SDS011;9019;48.132;-1.210;2023-08-20T03:36:12;5.13;;;1.63;;
17790;SDS011;9019;48.132;-1.210;2023-08-20T03:38:39;5.80;;;1.63;;
17790;SDS011;9019;48.132;-1.210;2023-08-20T03:41:06;5.20;;;1.53;;
17790;SDS011;9019;48.132;-1.210;2023-08-20T03:43:33;5.57;;;1.50;;
17790;SDS011;9019;48.132;-1.210;2023-08-20T03:46:02;5.10;;;1.77;;
17790;SDS011;9019;48.132;-1.210;2023-08-20T03:48:29;3.47;;;1.50;;
17790;SDS011;9019;48.132;-1.210;2023-08-20T03:50:56;6.07;;;1.67;;
17790;SDS011;9019;48.132;-1.210;2023-08-20T03:53:24;4.70;;;1.60;;
17790;SDS011;9019;48.132;-1.210;2023-08-20T03:55:51;3.80;;;1.33;;
17790;SDS011;9019;48.132;-1.210;2023-08-20T03:58:18;3.37;;;1.30;;
17790;SDS011;9019;48.132;-1.210;2023-08-20T04:00:45;4.03;;;1.47;;
17790;SDS011;9019;48.132;-1.210;2023-08-20T04:03:14;5.07;;;1.53;;
17790;SDS011;9019;48.132;-1.210;2023-08-20T04:05:44;3.87;;;1.67;;
17790;SDS011;9019;48.132;-1.210;2023-08-20T04:08:11;6.80;;;1.80;;
17790;SDS011;9019;48.132;-1.210;2023-08-20T04:10:42;3.97;;;1.30;;
17790;SDS011;9019;48.132;-1.210;2023-08-20T04:13:09;3.43;;;1.57;;
17790;SDS011;9019;48.132;-1.210;2023-08-20T04:15:38;5.03;;;1.60;;
17790;SDS011;9019;48.132;-1.210;2023-08-20T04:18:06;3.40;;;1.40;;
17790;SDS011;9019;48.132;-1.210;2023-08-20T04:20:34;4.97;;;1.37;;
17790;SDS011;9019;48.132;-1.210;2023-08-20T04:23:02;3.93;;;1.80;;
17790;SDS011;9019;48.132;-1.210;2023-08-20T04:25:29;3.30;;;1.80;;
17790;SDS011;9019;48.132;-1.210;2023-08-20T04:27:56;3.57;;;1.73;;
17790;SDS011;9019;48.132;-1.210;2023-08-20T04:30:23;3.97;;;1.80;;
17790;SDS011;9019;48.132;-1.210;2023-08-20T04:32:50;4.20;;;1.80;;
17790;SDS011;9019;48.132;-1.210;2023-08-20T04:35:18;3.47;;;1.63;;
17790;SDS011;9019;48.132;-1.210;2023-08-20T04:37:46;1.67;;;1.30;;
17790;SDS011;9019;48.132;-1.210;2023-08-20T04:40:13;3.10;;;1.40;;
17790;SDS011;9019;48.132;-1.210;2023-08-20T04:42:40;2.97;;;1.40;;
17790;SDS011;9019;48.132;-1.210;2023-08-20T04:45:08;3.13;;;1.50;;
17790;SDS011;9019;48.132;-1.210;2023-08-20T04:47:36;2.67;;;1.50;;
17790;SDS011;9019;48.132;-1.210;2023-08-20T04:50:03;3.00;;;1.40;;
17790;SDS011;9019;48.132;-1.210;2023-08-20T04:52:32;2.43;;;1.90;;
17790;SDS011;9019;48.132;-1.210;2023-08-20T04:55:01;3.07;;;1.70;;
17790;SDS011;9019;48.132;-1.210;2023-08-20T04:57:28;4.67;;;1.60;;
17790;SDS011;9019;48.132;-1.210;2023-08-20T04:59:56;4.17;;;1.70;;
17790;SDS011;9019;48.132;-1.210;2023-08-20T05:02:23;2.33;;;1.97;;
17790;SDS011;9019;48.132;-1.210;2023-08-20T05:04:51;2.60;;;2.40;;
17790;SDS011;9019;48.132;-1.210;2023-08-20T05:07:18;2.77;;;2.30;;
17790;SDS011;9019;48.132;-1.210;2023-08-20T05:09:45;2.30;;;2.10;;
17790;SDS011;9019;48.132;-1.210;2023-08-20T05:12:14;3.33;;;2.03;;
17790;SDS011;9019;48.132;-1.210;2023-08-20T05:14:41;2.60;;;2.37;;
17790;SDS011;9019;48.132;-1.210;2023-08-20T05:17:08;2.40;;;2.20;;
17790;SDS011;9019;48.132;-1.210;2023-08-20T05:19:35;3.50;;;2.43;;
17790;SDS011;9019;48.132;-1.210;2023-08-20T05:22:02;3.20;;;2.30;;
17790;SDS011;9019;48.132;-1.210;2023-08-20T05:24:29;3.00;;;2.20;;
17790;SDS011;9019;48.132;-1.210;2023-08-20T05:27:03;4.07;;;2.17;;
17790;SDS011;9019;48.132;-1.210;2023-08-20T05:29:32;11.37;;;3.00;;
17790;SDS011;9019;48.132;-1.210;2023-08-20T05:31:59;2.80;;;2.23;;
17790;SDS011;9019;48.132;-1.210;2023-08-20T05:34:27;2.40;;;2.20;;
17790;SDS011;9019;48.132;-1.210;2023-08-20T05:36:54;3.13;;;2.40;;
17790;SDS011;9019;48.132;-1.210;2023-08-20T05:39:21;2.70;;;2.03;;
17790;SDS011;9019;48.132;-1.210;2023-08-20T05:41:48;2.60;;;2.30;;
17790;SDS011;9019;48.132;-1.210;2023-08-20T05:44:15;2.40;;;2.20;;
17790;SDS011;9019;48.132;-1.210;2023-08-20T05:46:44;3.00;;;2.30;;
17790;SDS011;9019;48.132;-1.210;2023-08-20T05:49:12;2.80;;;2.20;;
17790;SDS011;9019;48.132;-1.210;2023-08-20T05:51:40;4.60;;;2.80;;
17790;SDS011;9019;48.132;-1.210;2023-08-20T05:54:08;2.83;;;2.33;;
17790;SDS011;9019;48.132;-1.210;2023-08-20T05:56:35;3.90;;;1.90;;
17790;SDS011;9019;48.132;-1.210;2023-08-20T05:59:02;9.67;;;2.57;;
17790;SDS011;9019;48.132;-1.210;2023-08-20T06:01:29;2.23;;;2.00;;
17790;SDS011;9019;48.132;-1.210;2023-08-20T06:03:58;3.40;;;1.93;;
17790;SDS011;9019;48.132;-1.210;2023-08-20T06:06:26;2.17;;;1.97;;
17790;SDS011;9019;48.132;-1.210;2023-08-20T06:08:53;2.67;;;1.80;;
17790;SDS011;9019;48.132;-1.210;2023-08-20T06:11:21;2.70;;;1.90;;
17790;SDS011;9019;48.132;-1.210;2023-08-20T06:13:48;3.60;;;2.00;;
17790;SDS011;9019;48.132;-1.210;2023-08-20T06:16:15;3.28;;;1.73;;
17790;SDS011;9019;48.132;-1.210;2023-08-20T06:18:42;2.92;;;1.95;;
17790;SDS011;9019;48.132;-1.210;2023-08-20T06:21:11;2.60;;;1.85;;
17790;SDS011;9019;48.132;-1.210;2023-08-20T06:23:38;2.78;;;1.92;;
17790;SDS011;9019;48.132;-1.210;2023-08-20T06:26:06;2.25;;;1.55;;
17790;SDS011;9019;48.132;-1.210;2023-08-20T06:28:33;2.42;;;1.67;;
17790;SDS011;9019;48.132;-1.210;2023-08-20T06:31:00;2.30;;;1.40;;
17790;SDS011;9019;48.132;-1.210;2023-08-20T06:33:27;3.15;;;1.50;;
17790;SDS011;9019;48.132;-1.210;2023-08-20T06:35:54;4.25;;;1.73;;
17790;SDS011;9019;48.132;-1.210;2023-08-20T06:38:23;4.35;;;1.50;;
17790;SDS011;9019;48.132;-1.210;2023-08-20T06:40:50;2.50;;;1.65;;
17790;SDS011;9019;48.132;-1.210;2023-08-20T06:43:18;5.05;;;1.58;;
17790;SDS011;9019;48.132;-1.210;2023-08-20T06:45:45;6.63;;;1.70;;
17790;SDS011;9019;48.132;-1.210;2023-08-20T06:48:12;3.35;;;1.65;;
17790;SDS011;9019;48.132;-1.210;2023-08-20T06:50:41;5.72;;;1.77;;
17790;SDS011;9019;48.132;-1.210;2023-08-20T06:53:08;3.45;;;1.60;;
17790;SDS011;9019;48.132;-1.210;2023-08-20T06:55:36;4.32;;;1.50;;
17790;SDS011;9019;48.132;-1.210;2023-08-20T06:58:04;4.80;;;1.70;;
17790;SDS011;9019;48.132;-1.210;2023-08-20T07:00:31;4.93;;;1.80;;
17790;SDS011;9019;48.132;-1.210;2023-08-20T07:02:58;3.53;;;1.48;;
17790;SDS011;9019;48.132;-1.210;2023-08-20T07:05:25;4.90;;;1.45;;
17790;SDS011;9019;48.132;-1.210;2023-08-20T07:07:52;4.18;;;1.50;;
17790;SDS011;9019;48.132;-1.210;2023-08-20T07:10:20;5.35;;;1.75;;
17790;SDS011;9019;48.132;-1.210;2023-08-20T07:12:48;5.28;;;1.52;;
17790;SDS011;9019;48.132;-1.210;2023-08-20T07:15:15;5.10;;;1.58;;
17790;SDS011;9019;48.132;-1.210;2023-08-20T07:17:42;4.95;;;1.48;;
17790;SDS011;9019;48.132;-1.210;2023-08-20T07:20:10;8.27;;;1.90;;
17790;SDS011;9019;48.132;-1.210;2023-08-20T07:22:37;7.13;;;1.88;;
17790;SDS011;9019;48.132;-1.210;2023-08-20T07:25:04;5.90;;;1.50;;
17790;SDS011;9019;48.132;-1.210;2023-08-20T07:27:31;4.72;;;1.60;;
17790;SDS011;9019;48.132;-1.210;2023-08-20T07:30:00;7.55;;;1.90;;
17790;SDS011;9019;48.132;-1.210;2023-08-20T07:32:27;5.22;;;1.90;;
17790;SDS011;9019;48.132;-1.210;2023-08-20T07:34:54;4.43;;;1.50;;
17790;SDS011;9019;48.132;-1.210;2023-08-20T07:37:22;3.42;;;1.60;;
17790;SDS011;9019;48.132;-1.210;2023-08-20T07:39:49;5.43;;;1.67;;
17790;SDS011;9019;48.132;-1.210;2023-08-20T07:42:16;5.20;;;1.50;;
17790;SDS011;9019;48.132;-1.210;2023-08-20T07:44:43;6.22;;;1.80;;
17790;SDS011;9019;48.132;-1.210;2023-08-20T07:47:12;7.35;;;1.95;;
17790;SDS011;9019;48.132;-1.210;2023-08-20T07:49:39;4.55;;;1.60;;
17790;SDS011;9019;48.132;-1.210;2023-08-20T07:52:06;4.05;;;1.42;;
17790;SDS011;9019;48.132;-1.210;2023-08-20T07:54:33;4.07;;;1.40;;
17790;SDS011;9019;48.132;-1.210;2023-08-20T07:57:01;5.80;;;1.73;;
17790;SDS011;9019;48.132;-1.210;2023-08-20T07:59:28;5.15;;;1.30;;
17790;SDS011;9019;48.132;-1.210;2023-08-20T08:01:55;4.22;;;1.50;;
17790;SDS011;9019;48.132;-1.210;2023-08-20T08:04:24;5.72;;;1.40;;
17790;SDS011;9019;48.132;-1.210;2023-08-20T08:06:51;3.67;;;1.50;;
17790;SDS011;9019;48.132;-1.210;2023-08-20T08:09:18;5.53;;;1.25;;
17790;SDS011;9019;48.132;-1.210;2023-08-20T08:11:46;4.53;;;1.60;;
17790;SDS011;9019;48.132;-1.210;2023-08-20T08:14:14;5.78;;;1.30;;
17790;SDS011;9019;48.132;-1.210;2023-08-20T08:16:41;5.88;;;1.58;;
17790;SDS011;9019;48.132;-1.210;2023-08-20T08:19:08;5.95;;;1.60;;
17790;SDS011;9019;48.132;-1.210;2023-08-20T08:21:36;5.57;;;1.33;;
17790;SDS011;9019;48.132;-1.210;2023-08-20T08:24:04;4.60;;;1.60;;
17790;SDS011;9019;48.132;-1.210;2023-08-20T08:26:33;4.13;;;1.38;;
17790;SDS011;9019;48.132;-1.210;2023-08-20T08:29:00;7.07;;;1.60;;
17790;SDS011;9019;48.132;-1.210;2023-08-20T08:31:27;6.32;;;1.50;;
17790;SDS011;9019;48.132;-1.210;2023-08-20T08:33:55;7.97;;;1.50;;
17790;SDS011;9019;48.132;-1.210;2023-08-20T08:36:22;5.15;;;1.30;;
17790;SDS011;9019;48.132;-1.210;2023-08-20T08:38:52;6.97;;;1.48;;
17790;SDS011;9019;48.132;-1.210;2023-08-20T08:41:21;5.02;;;1.40;;
17790;SDS011;9019;48.132;-1.210;2023-08-20T08:43:48;5.10;;;1.42;;
17790;SDS011;9019;48.132;-1.210;2023-08-20T08:46:16;4.32;;;1.40;;
17790;SDS011;9019;48.132;-1.210;2023-08-20T08:48:45;6.68;;;1.40;;
17790;SDS011;9019;48.132;-1.210;2023-08-20T08:51:12;5.40;;;1.08;;
17790;SDS011;9019;48.132;-1.210;2023-08-20T08:53:41;3.47;;;1.15;;
17790;SDS011;9019;48.132;-1.210;2023-08-20T08:56:11;6.07;;;1.30;;
17790;SDS011;9019;48.132;-1.210;2023-08-20T08:58:38;4.85;;;1.42;;
17790;SDS011;9019;48.132;-1.210;2023-08-20T09:01:05;3.83;;;1.05;;
17790;SDS011;9019;48.132;-1.210;2023-08-20T09:03:32;3.88;;;1.20;;
17790;SDS011;9019;48.132;-1.210;2023-08-20T09:06:00;3.15;;;1.20;;
17790;SDS011;9019;48.132;-1.210;2023-08-20T09:08:29;5.93;;;1.30;;
17790;SDS011;9019;48.132;-1.210;2023-08-20T09:10:57;6.75;;;1.52;;
17790;SDS011;9019;48.132;-1.210;2023-08-20T09:13:26;4.65;;;1.30;;
17790;SDS011;9019;48.132;-1.210;2023-08-20T09:15:53;3.50;;;1.10;;
17790;SDS011;9019;48.132;-1.210;2023-08-20T09:18:20;7.80;;;1.67;;
17790;SDS011;9019;48.132;-1.210;2023-08-20T09:20:48;5.38;;;1.30;;
17790;SDS011;9019;48.132;-1.210;2023-08-20T09:23:15;3.92;;;1.30;;
17790;SDS011;9019;48.132;-1.210;2023-08-20T09:25:43;4.82;;;1.40;;
17790;SDS011;9019;48.132;-1.210;2023-08-20T09:28:10;6.13;;;1.60;;
17790;SDS011;9019;48.132;-1.210;2023-08-20T09:30:39;4.68;;;1.17;;
17790;SDS011;9019;48.132;-1.210;2023-08-20T09:33:07;5.20;;;1.30;;
17790;SDS011;9019;48.132;-1.210;2023-08-20T09:35:34;4.88;;;1.23;;
17790;SDS011;9019;48.132;-1.210;2023-08-20T09:38:03;4.25;;;1.25;;
17790;SDS011;9019;48.132;-1.210;2023-08-20T09:40:30;3.92;;;1.10;;
17790;SDS011;9019;48.132;-1.210;2023-08-20T09:42:57;4.10;;;1.00;;
17790;SDS011;9019;48.132;-1.210;2023-08-20T09:45:25;3.53;;;1.23;;
17790;SDS011;9019;48.132;-1.210;2023-08-20T09:47:55;3.17;;;1.00;;
17790;SDS011;9019;48.132;-1.210;2023-08-20T09:50:24;4.72;;;1.23;;
17790;SDS011;9019;48.132;-1.210;2023-08-20T09:52:55;2.78;;;0.90;;
17790;SDS011;9019;48.132;-1.210;2023-08-20T09:55:25;1.98;;;1.00;;
17790;SDS011;9019;48.132;-1.210;2023-08-20T09:57:55;3.28;;;1.00;;
17790;SDS011;9019;48.132;-1.210;2023-08-20T10:00:25;3.45;;;1.30;;
17790;SDS011;9019;48.132;-1.210;2023-08-20T10:02:52;2.25;;;0.88;;
17790;SDS011;9019;48.132;-1.210;2023-08-20T10:05:21;2.10;;;0.93;;
17790;SDS011;9019;48.132;-1.210;2023-08-20T10:07:49;2.55;;;0.80;;
17790;SDS011;9019;48.132;-1.210;2023-08-20T10:10:17;4.63;;;1.08;;
17790;SDS011;9019;48.132;-1.210;2023-08-20T10:12:44;2.75;;;0.90;;
17790;SDS011;9019;48.132;-1.210;2023-08-20T10:15:13;2.78;;;1.10;;
17790;SDS011;9019;48.132;-1.210;2023-08-20T10:17:41;3.13;;;1.25;;
17790;SDS011;9019;48.132;-1.210;2023-08-20T10:20:09;5.18;;;1.55;;
17790;SDS011;9019;48.132;-1.210;2023-08-20T10:22:38;4.25;;;0.98;;
17790;SDS011;9019;48.132;-1.210;2023-08-20T10:25:06;4.18;;;1.40;;
17790;SDS011;9019;48.132;-1.210;2023-08-20T10:27:35;3.08;;;1.02;;
17790;SDS011;9019;48.132;-1.210;2023-08-20T10:30:07;2.58;;;1.02;;
17790;SDS011;9019;48.132;-1.210;2023-08-20T10:32:46;2.90;;;1.05;;
17790;SDS011;9019;48.132;-1.210;2023-08-20T10:35:15;3.60;;;1.55;;
17790;SDS011;9019;48.132;-1.210;2023-08-20T10:38:05;3.78;;;1.35;;
17790;SDS011;9019;48.132;-1.210;2023-08-20T10:43:30;2.47;;;0.95;;
17790;SDS011;9019;48.132;-1.210;2023-08-20T10:46:07;3.28;;;1.30;;
17790;SDS011;9019;48.132;-1.210;2023-08-20T10:48:35;3.25;;;1.35;;
17790;SDS011;9019;48.132;-1.210;2023-08-20T10:51:12;2.83;;;1.27;;
17790;SDS011;9019;48.132;-1.210;2023-08-20T10:53:41;3.53;;;1.20;;
17790;SDS011;9019;48.132;-1.210;2023-08-20T10:56:11;3.67;;;1.30;;
17790;SDS011;9019;48.132;-1.210;2023-08-20T10:58:43;3.63;;;1.00;;
17790;SDS011;9019;48.132;-1.210;2023-08-20T11:01:18;2.40;;;1.00;;
17790;SDS011;9019;48.132;-1.210;2023-08-20T11:03:45;3.80;;;1.30;;
17790;SDS011;9019;48.132;-1.210;2023-08-20T11:06:15;4.18;;;1.20;;
17790;SDS011;9019;48.132;-1.210;2023-08-20T11:08:43;2.58;;;1.15;;
17790;SDS011;9019;48.132;-1.210;2023-08-20T11:11:11;3.00;;;1.00;;
17790;SDS011;9019;48.132;-1.210;2023-08-20T11:13:38;3.55;;;1.20;;
17790;SDS011;9019;48.132;-1.210;2023-08-20T11:16:08;3.58;;;1.30;;
17790;SDS011;9019;48.132;-1.210;2023-08-20T11:18:35;3.15;;;0.80;;
17790;SDS011;9019;48.132;-1.210;2023-08-20T11:21:03;3.33;;;1.20;;
17790;SDS011;9019;48.132;-1.210;2023-08-20T11:23:30;4.03;;;1.20;;
17790;SDS011;9019;48.132;-1.210;2023-08-20T11:25:59;2.45;;;0.90;;
17790;SDS011;9019;48.132;-1.210;2023-08-20T11:28:27;2.90;;;0.80;;
17790;SDS011;9019;48.132;-1.210;2023-08-20T11:30:54;1.90;;;1.00;;
17790;SDS011;9019;48.132;-1.210;2023-08-20T11:33:22;2.95;;;0.90;;
17790;SDS011;9019;48.132;-1.210;2023-08-20T11:35:51;3.97;;;1.88;;
17790;SDS011;9019;48.132;-1.210;2023-08-20T11:38:20;3.83;;;1.05;;
17790;SDS011;9019;48.132;-1.210;2023-08-20T11:40:47;2.60;;;0.95;;
17790;SDS011;9019;48.132;-1.210;2023-08-20T11:43:15;3.63;;;1.30;;
17790;SDS011;9019;48.132;-1.210;2023-08-20T11:45:46;3.85;;;2.35;;
17790;SDS011;9019;48.132;-1.210;2023-08-20T11:48:14;3.97;;;2.20;;
17790;SDS011;9019;48.132;-1.210;2023-08-20T11:50:41;3.38;;;1.02;;
17790;SDS011;9019;48.132;-1.210;2023-08-20T11:53:09;3.45;;;1.67;;
17790;SDS011;9019;48.132;-1.210;2023-08-20T11:55:37;3.22;;;1.27;;
17790;SDS011;9019;48.132;-1.210;2023-08-20T11:58:04;3.03;;;0.90;;
17790;SDS011;9019;48.132;-1.210;2023-08-20T12:00:33;4.28;;;1.20;;
17790;SDS011;9019;48.132;-1.210;2023-08-20T12:03:01;2.13;;;0.80;;
17790;SDS011;9019;48.132;-1.210;2023-08-20T12:05:29;4.28;;;1.10;;
17790;SDS011;9019;48.132;-1.210;2023-08-20T12:07:57;2.80;;;1.15;;
17790;SDS011;9019;48.132;-1.210;2023-08-20T12:10:24;2.72;;;0.90;;
17790;SDS011;9019;48.132;-1.210;2023-08-20T12:12:52;2.33;;;0.80;;
17790;SDS011;9019;48.132;-1.210;2023-08-20T12:15:19;1.92;;;0.80;;
17790;SDS011;9019;48.132;-1.210;2023-08-20T12:17:57;3.25;;;0.77;;
17790;SDS011;9019;48.132;-1.210;2023-08-20T12:20:26;3.35;;;0.80;;
17790;SDS011;9019;48.132;-1.210;2023-08-20T12:22:54;3.17;;;0.93;;
17790;SDS011;9019;48.132;-1.210;2023-08-20T12:25:21;2.08;;;0.80;;
17790;SDS011;9019;48.132;-1.210;2023-08-20T12:27:48;2.83;;;0.98;;
17790;SDS011;9019;48.132;-1.210;2023-08-20T12:30:15;3.60;;;1.10;;
17790;SDS011;9019;48.132;-1.210;2023-08-20T12:32:43;2.03;;;0.80;;
17790;SDS011;9019;48.132;-1.210;2023-08-20T12:35:11;2.83;;;0.80;;
17790;SDS011;9019;48.132;-1.210;2023-08-20T12:37:38;2.80;;;0.75;;
17790;SDS011;9019;48.132;-1.210;2023-08-20T12:40:06;3.88;;;0.90;;
17790;SDS011;9019;48.132;-1.210;2023-08-20T12:42:35;4.05;;;1.08;;
17790;SDS011;9019;48.132;-1.210;2023-08-20T12:45:03;3.00;;;1.13;;
17790;SDS011;9019;48.132;-1.210;2023-08-20T12:47:31;2.58;;;1.17;;
17790;SDS011;9019;48.132;-1.210;2023-08-20T12:49:58;2.90;;;0.80;;
17790;SDS011;9019;48.132;-1.210;2023-08-20T12:52:27;1.73;;;0.70;;
17790;SDS011;9019;48.132;-1.210;2023-08-20T12:54:54;2.47;;;0.90;;
17790;SDS011;9019;48.132;-1.210;2023-08-20T12:57:21;2.97;;;0.80;;
17790;SDS011;9019;48.132;-1.210;2023-08-20T12:59:48;2.20;;;0.90;;
17790;SDS011;9019;48.132;-1.210;2023-08-20T13:02:15;2.67;;;0.90;;
17790;SDS011;9019;48.132;-1.210;2023-08-20T13:04:43;3.45;;;1.15;;
17790;SDS011;9019;48.132;-1.210;2023-08-20T13:07:11;1.90;;;0.82;;
17790;SDS011;9019;48.132;-1.210;2023-08-20T13:09:41;3.60;;;1.20;;
17790;SDS011;9019;48.132;-1.210;2023-08-20T13:12:08;2.95;;;0.90;;
17790;SDS011;9019;48.132;-1.210;2023-08-20T13:14:37;2.72;;;1.00;;
17790;SDS011;9019;48.132;-1.210;2023-08-20T13:17:05;2.00;;;0.90;;
17790;SDS011;9019;48.132;-1.210;2023-08-20T13:19:33;2.78;;;1.00;;
17790;SDS011;9019;48.132;-1.210;2023-08-20T13:22:00;2.03;;;1.00;;
17790;SDS011;9019;48.132;-1.210;2023-08-20T13:24:28;1.52;;;0.70;;
17790;SDS011;9019;48.132;-1.210;2023-08-20T13:26:56;3.28;;;0.70;;
17790;SDS011;9019;48.132;-1.210;2023-08-20T13:29:24;0.95;;;0.60;;
17790;SDS011;9019;48.132;-1.210;2023-08-20T13:31:51;4.68;;;1.10;;
17790;SDS011;9019;48.132;-1.210;2023-08-20T13:34:18;2.83;;;0.80;;
17790;SDS011;9019;48.132;-1.210;2023-08-20T13:36:45;1.73;;;0.80;;
17790;SDS011;9019;48.132;-1.210;2023-08-20T13:39:13;2.35;;;0.80;;
17790;SDS011;9019;48.132;-1.210;2023-08-20T13:41:40;2.60;;;0.80;;
17790;SDS011;9019;48.132;-1.210;2023-08-20T13:44:09;2.58;;;0.82;;
17790;SDS011;9019;48.132;-1.210;2023-08-20T13:46:36;3.10;;;0.85;;
17790;SDS011;9019;48.132;-1.210;2023-08-20T13:49:03;1.48;;;0.90;;
17790;SDS011;9019;48.132;-1.210;2023-08-20T13:51:30;2.55;;;0.70;;
17790;SDS011;9019;48.132;-1.210;2023-08-20T13:53:58;2.38;;;0.80;;
17790;SDS011;9019;48.132;-1.210;2023-08-20T13:56:25;2.83;;;0.90;;
17790;SDS011;9019;48.132;-1.210;2023-08-20T13:58:52;2.53;;;0.93;;
17790;SDS011;9019;48.132;-1.210;2023-08-20T14:01:21;3.67;;;0.90;;
17790;SDS011;9019;48.132;-1.210;2023-08-20T14:03:49;3.45;;;0.88;;
17790;SDS011;9019;48.132;-1.210;2023-08-20T14:06:16;3.25;;;0.70;;
17790;SDS011;9019;48.132;-1.210;2023-08-20T14:08:43;0.98;;;0.50;;
17790;SDS011;9019;48.132;-1.210;2023-08-20T14:11:10;2.00;;;0.75;;
17790;SDS011;9019;48.132;-1.210;2023-08-20T14:13:37;2.95;;;0.70;;
17790;SDS011;9019;48.132;-1.210;2023-08-20T14:16:05;2.33;;;0.73;;
17790;SDS011;9019;48.132;-1.210;2023-08-20T14:18:34;3.70;;;1.08;;
17790;SDS011;9019;48.132;-1.210;2023-08-20T14:21:04;2.60;;;0.80;;
17790;SDS011;9019;48.132;-1.210;2023-08-20T14:23:31;3.78;;;0.80;;
17790;SDS011;9019;48.132;-1.210;2023-08-20T14:26:00;2.15;;;0.70;;
17790;SDS011;9019;48.132;-1.210;2023-08-20T14:28:27;2.40;;;0.80;;
17790;SDS011;9019;48.132;-1.210;2023-08-20T14:30:54;1.25;;;0.60;;
17790;SDS011;9019;48.132;-1.210;2023-08-20T14:33:21;2.70;;;1.05;;
17790;SDS011;9019;48.132;-1.210;2023-08-20T14:35:50;1.95;;;0.70;;
17790;SDS011;9019;48.132;-1.210;2023-08-20T14:38:17;1.90;;;0.60;;
17790;SDS011;9019;48.132;-1.210;2023-08-20T14:40:44;4.72;;;0.80;;
17790;SDS011;9019;48.132;-1.210;2023-08-20T14:43:12;1.35;;;0.65;;
17790;SDS011;9019;48.132;-1.210;2023-08-20T14:45:39;2.85;;;0.63;;
17790;SDS011;9019;48.132;-1.210;2023-08-20T14:48:06;1.17;;;0.60;;
17790;SDS011;9019;48.132;-1.210;2023-08-20T14:50:33;2.30;;;0.70;;
17790;SDS011;9019;48.132;-1.210;2023-08-20T14:53:02;1.05;;;0.60;;
17790;SDS011;9019;48.132;-1.210;2023-08-20T14:55:29;1.98;;;0.90;;
17790;SDS011;9019;48.132;-1.210;2023-08-20T14:57:57;1.52;;;0.60;;